Time;durP1;ratioP1;P1;durP2;ratioP2;P2;SDS_P1;SDS_P2;PMS_P1;PMS_P2;Temp;Humidity;BMP_temperature;BMP_pressure;BME280_temperature;BME280_humidity;BME280_pressure;Samples;Min_cycle;Max_cycle;Signal;HPM_P1;HPM_P2
2022/01/14 00:01:47;;;;;;;;;;;-3.60;99.90;;;;;;5028269;28;19937;-51
2022/01/14 00:04:15;;;;;;;;;;;-3.60;99.90;;;;;;5048595;22;20079;-50
2022/01/14 00:06:42;;;;;;;;;;;-3.60;99.90;;;;;;5071342;28;19994;-51
2022/01/14 00:09:11;;;;;;;;;;;-3.60;99.90;;;;;;5057152;28;19971;-50
2022/01/14 00:11:40;;;;;;;;;;;-3.70;99.90;;;;;;5069148;28;20714;-51
2022/01/14 00:14:19;;;;;;;;;;;-3.70;99.90;;;;;;5070398;28;19972;-51
2022/01/14 00:16:47;;;;;;;;;;;-3.70;99.90;;;;;;5069811;28;20352;-52
2022/01/14 00:19:15;;;;;;;;;;;-3.70;99.90;;;;;;5070077;28;19928;-52
2022/01/14 00:21:43;;;;;;;;;;;-3.70;99.90;;;;;;5071422;28;20014;-51
2022/01/14 00:24:14;;;;;;;;;;;-3.70;99.90;;;;;;5056305;28;19925;-50
2022/01/14 00:32:13;;;;;;;;;;;-3.70;99.90;;;;;;5066780;28;19928;-54
2022/01/14 00:34:41;;;;;;;;;;;-3.70;99.90;;;;;;5071155;28;19947;-53
2022/01/14 00:37:08;;;;;;;;;;;-3.60;99.90;;;;;;5070885;28;19936;-52
2022/01/14 00:39:34;;;;;;;;;;;-3.60;99.90;;;;;;5070497;28;19931;-51
2022/01/14 00:42:01;;;;;;;;;;;-3.70;99.90;;;;;;5066102;28;19924;-53
2022/01/14 00:44:28;;;;;;;;;;;-3.60;99.90;;;;;;5070696;28;19925;-52
2022/01/14 00:46:55;;;;;;;;;;;-3.70;99.90;;;;;;5070249;28;19928;-52
2022/01/14 00:49:21;;;;;;;;;;;-3.70;99.90;;;;;;5070493;28;20406;-52
2022/01/14 00:51:50;;;;;;;;;;;-3.70;99.90;;;;;;5071308;28;19929;-52
2022/01/14 00:54:17;;;;;;;;;;;-3.70;99.90;;;;;;5071181;28;19925;-51
2022/01/14 00:57:13;;;;;;;;;;;-3.80;99.90;;;;;;5071156;28;19936;-51
2022/01/14 00:59:34;;;;;;;;;;;-3.80;99.90;;;;;;5069934;28;20011;-51
2022/01/14 01:02:01;;;;;;;;;;;-3.70;99.90;;;;;;5070488;28;20425;-51
2022/01/14 01:04:32;;;;;;;;;;;-3.60;99.90;;;;;;5070835;28;19924;-52
2022/01/14 01:07:01;;;;;;;;;;;-3.40;99.90;;;;;;5070618;28;20348;-51
2022/01/14 01:09:29;;;;;;;;;;;-3.40;99.90;;;;;;5068896;28;19947;-51
2022/01/14 01:12:08;;;;;;;;;;;-3.40;99.90;;;;;;5070906;28;20011;-52
2022/01/14 01:14:41;;;;;;;;;;;-3.50;99.90;;;;;;5068261;28;20352;-52
2022/01/14 01:17:08;;;;;;;;;;;-3.60;99.90;;;;;;5070813;28;19928;-53
2022/01/14 01:19:35;;;;;;;;;;;-3.70;99.90;;;;;;5070065;28;19977;-53
2022/01/14 01:22:03;;;;;;;;;;;-3.80;99.90;;;;;;5070510;28;19928;-52
2022/01/14 01:24:30;;;;;;;;;;;-3.80;99.90;;;;;;5070600;28;19936;-52
2022/01/14 01:26:57;;;;;;;;;;;-3.90;99.90;;;;;;5070423;28;20451;-52
2022/01/14 01:32:05;;;;;;;;;;;-3.90;99.90;;;;;;5072552;28;19928;-51
2022/01/14 01:34:32;;;;;;;;;;;-3.90;99.90;;;;;;5073815;28;19932;-51
2022/01/14 01:36:59;;;;;;;;;;;-3.80;99.90;;;;;;5074093;28;19925;-51
2022/01/14 01:39:29;;;;;;;;;;;-3.90;99.90;;;;;;5073295;28;19924;-51
2022/01/14 01:41:58;;;;;;;;;;;-3.90;99.90;;;;;;5073721;28;20382;-52
2022/01/14 01:44:25;;;;;;;;;;;-4.00;99.90;;;;;;5073484;28;19971;-52
2022/01/14 01:46:53;;;;;;;;;;;-4.00;99.90;;;;;;5073972;28;19936;-51
2022/01/14 01:49:22;;;;;;;;;;;-4.00;99.90;;;;;;5072986;28;19978;-52
2022/01/14 01:51:49;;;;;;;;;;;-4.00;99.90;;;;;;5074079;28;19932;-51
2022/01/14 01:54:17;;;;;;;;;;;-4.00;99.90;;;;;;5073607;28;19986;-51
2022/01/14 01:56:45;;;;;;;;;;;-4.00;99.90;;;;;;5072681;28;19924;-52
2022/01/14 01:59:12;;;;;;;;;;;-4.00;99.90;;;;;;5072795;28;19929;-50
2022/01/14 02:01:38;;;;;;;;;;;-4.00;99.90;;;;;;5073439;28;19954;-51
2022/01/14 02:04:05;;;;;;;;;;;-4.10;99.90;;;;;;5073259;28;19935;-52
2022/01/14 02:06:32;;;;;;;;;;;-4.10;99.90;;;;;;5073205;28;20006;-52
2022/01/14 02:08:59;;;;;;;;;;;-4.10;99.90;;;;;;5072589;28;20496;-49
2022/01/14 02:11:26;;;;;;;;;;;-4.10;99.90;;;;;;5072790;28;20388;-48
2022/01/14 02:13:57;;;;;;;;;;;-4.10;99.90;;;;;;5073744;28;19982;-52
2022/01/14 02:16:33;;;;;;;;;;;-4.10;99.90;;;;;;5073130;28;19935;-51
2022/01/14 02:19:15;;;;;;;;;;;-4.20;99.90;;;;;;5072948;28;19959;-51
2022/01/14 02:24:55;;;;;;;;;;;-4.20;99.90;;;;;;5072596;28;20065;-52
2022/01/14 02:27:23;;;;;;;;;;;-4.20;99.90;;;;;;5056334;28;19935;-52
2022/01/14 02:29:49;;;;;;;;;;;-4.10;99.90;;;;;;5072629;28;20397;-51
2022/01/14 02:32:16;;;;;;;;;;;-4.20;99.90;;;;;;5072260;28;20420;-52
2022/01/14 02:34:43;;;;;;;;;;;-4.20;99.90;;;;;;5072981;28;20394;-52
2022/01/14 02:37:11;;;;;;;;;;;-4.20;99.90;;;;;;5072060;28;19925;-51
2022/01/14 02:39:39;;;;;;;;;;;-4.20;99.90;;;;;;5072596;28;20398;-52
2022/01/14 02:42:06;;;;;;;;;;;-4.20;99.90;;;;;;5072472;28;19924;-51
2022/01/14 02:44:33;;;;;;;;;;;-4.20;99.90;;;;;;5072414;28;19986;-51
2022/01/14 02:47:05;;;;;;;;;;;-4.30;99.90;;;;;;5072991;28;20019;-52
2022/01/14 02:49:34;;;;;;;;;;;-4.30;99.90;;;;;;5071853;28;19935;-51
2022/01/14 02:52:03;;;;;;;;;;;-4.30;99.90;;;;;;5072276;28;19924;-52
2022/01/14 02:54:39;;;;;;;;;;;-4.30;99.90;;;;;;5072223;28;20019;-51
2022/01/14 02:57:07;;;;;;;;;;;-4.30;99.90;;;;;;5072407;28;20279;-51
2022/01/14 02:59:34;;;;;;;;;;;-4.30;99.90;;;;;;5071526;28;19978;-51
2022/01/14 03:02:02;;;;;;;;;;;-4.20;99.90;;;;;;5072198;28;19924;-52
2022/01/14 03:04:29;;;;;;;;;;;-4.20;99.90;;;;;;5072269;28;19928;-52
2022/01/14 03:06:56;;;;;;;;;;;-4.30;99.90;;;;;;5071425;28;19994;-51
2022/01/14 03:09:22;;;;;;;;;;;-4.30;99.90;;;;;;5057078;28;19925;-51
2022/01/14 03:11:53;;;;;;;;;;;-4.30;99.90;;;;;;5061557;28;19925;-52
2022/01/14 03:14:22;;;;;;;;;;;-4.30;99.90;;;;;;5071789;28;19924;-51
2022/01/14 03:16:49;;;;;;;;;;;-4.30;99.90;;;;;;5072049;28;19970;-51
2022/01/14 03:19:20;;;;;;;;;;;-4.30;99.90;;;;;;5070828;28;19970;-51
2022/01/14 03:21:49;;;;;;;;;;;-4.30;99.90;;;;;;5051906;28;19928;-52
2022/01/14 03:27:50;;;;;;;;;;;-4.20;99.90;;;;;;5069116;28;20025;-52
2022/01/14 03:30:18;;;;;;;;;;;-4.20;99.90;;;;;;5061431;28;19928;-53
2022/01/14 03:32:46;;;;;;;;;;;-4.30;99.90;;;;;;5071531;28;19958;-52
2022/01/14 03:35:13;;;;;;;;;;;-4.20;99.90;;;;;;5071802;28;19982;-51
2022/01/14 03:37:40;;;;;;;;;;;-4.30;99.90;;;;;;5071821;28;19985;-52
2022/01/14 03:40:08;;;;;;;;;;;-4.30;99.90;;;;;;5070647;28;19924;-51
2022/01/14 03:42:34;;;;;;;;;;;-4.20;99.90;;;;;;5071800;28;19924;-51
2022/01/14 03:45:01;;;;;;;;;;;-4.20;99.90;;;;;;5069935;28;19928;-52
2022/01/14 03:47:29;;;;;;;;;;;-4.10;99.90;;;;;;5061854;28;19986;-52
2022/01/14 03:49:56;;;;;;;;;;;-4.20;99.90;;;;;;5071231;28;20386;-52
2022/01/14 03:52:23;;;;;;;;;;;-4.10;99.90;;;;;;5071544;28;19924;-51
2022/01/14 03:54:50;;;;;;;;;;;-4.10;99.90;;;;;;5071084;28;19928;-51
2022/01/14 03:57:17;;;;;;;;;;;-4.10;99.90;;;;;;5071842;28;19935;-51
2022/01/14 03:59:43;;;;;;;;;;;-4.10;99.90;;;;;;5070866;28;19924;-50
2022/01/14 04:02:10;;;;;;;;;;;-4.10;99.90;;;;;;5071268;28;19928;-51
2022/01/14 04:04:38;;;;;;;;;;;-4.20;99.90;;;;;;5071488;28;20341;-52
2022/01/14 04:07:05;;;;;;;;;;;-4.20;99.90;;;;;;5071379;28;19986;-51
2022/01/14 04:09:36;;;;;;;;;;;-4.30;99.90;;;;;;5071256;28;20062;-52
2022/01/14 04:12:03;;;;;;;;;;;-4.30;99.90;;;;;;5072285;28;20016;-51
2022/01/14 04:17:14;;;;;;;;;;;-4.40;99.90;;;;;;5070749;28;20326;-52
2022/01/14 04:19:43;;;;;;;;;;;-4.40;99.90;;;;;;5071160;28;19925;-52
2022/01/14 04:22:09;;;;;;;;;;;-4.30;99.90;;;;;;5071648;28;19954;-52
2022/01/14 04:24:36;;;;;;;;;;;-4.30;99.90;;;;;;5071694;28;19970;-52
2022/01/14 04:27:03;;;;;;;;;;;-4.30;99.90;;;;;;5071630;28;19981;-52
2022/01/14 04:29:30;;;;;;;;;;;-4.20;99.90;;;;;;5070778;28;19925;-51
2022/01/14 04:31:56;;;;;;;;;;;-4.20;99.90;;;;;;5070529;28;20412;-50
2022/01/14 04:34:23;;;;;;;;;;;-4.20;99.90;;;;;;5071161;28;20401;-52
2022/01/14 04:36:51;;;;;;;;;;;-4.20;99.90;;;;;;5071004;28;20356;-50
2022/01/14 04:39:18;;;;;;;;;;;-4.10;99.90;;;;;;5071296;28;19928;-51
2022/01/14 04:41:45;;;;;;;;;;;-4.20;99.90;;;;;;5071074;28;20305;-51
2022/01/14 04:44:12;;;;;;;;;;;-4.20;99.90;;;;;;5071469;28;19950;-52
2022/01/14 04:49:28;;;;;;;;;;;-4.30;99.90;;;;;;5055233;28;19927;-51
2022/01/14 04:51:56;;;;;;;;;;;-4.30;99.90;;;;;;5071220;28;20386;-51
2022/01/14 04:54:23;;;;;;;;;;;-4.30;99.90;;;;;;5071244;28;19929;-52
2022/01/14 04:56:51;;;;;;;;;;;-4.30;99.90;;;;;;5070685;28;20007;-51
2022/01/14 04:59:18;;;;;;;;;;;-4.30;99.90;;;;;;5070978;28;19931;-52
2022/01/14 05:01:44;;;;;;;;;;;-4.30;99.90;;;;;;5070694;28;19978;-50
2022/01/14 05:04:11;;;;;;;;;;;-4.30;99.90;;;;;;5051187;28;19932;-51
2022/01/14 05:06:40;;;;;;;;;;;-4.20;99.90;;;;;;5073627;28;19932;-51
2022/01/14 05:09:18;;;;;;;;;;;-4.20;99.90;;;;;;5074562;28;20319;-51
2022/01/14 05:11:52;;;;;;;;;;;-4.30;99.90;;;;;;5075180;28;19986;-51
2022/01/14 05:14:19;;;;;;;;;;;-4.30;99.90;;;;;;5074919;28;20020;-52
2022/01/14 05:16:46;;;;;;;;;;;-4.30;99.90;;;;;;5074317;28;19924;-51
2022/01/14 05:19:13;;;;;;;;;;;-4.20;99.90;;;;;;5054778;28;20383;-52
2022/01/14 05:21:40;;;;;;;;;;;-4.30;99.90;;;;;;5073906;28;20545;-51
2022/01/14 05:24:08;;;;;;;;;;;-4.30;99.90;;;;;;5074192;28;19971;-51
2022/01/14 05:26:35;;;;;;;;;;;-4.20;99.90;;;;;;5074359;28;20443;-51
2022/01/14 05:29:01;;;;;;;;;;;-4.20;99.90;;;;;;5073596;28;20408;-50
2022/01/14 05:31:41;;;;;;;;;;;-4.20;99.90;;;;;;5073661;28;20498;-52
2022/01/14 05:34:07;;;;;;;;;;;-4.30;99.90;;;;;;5074482;28;19931;-51
2022/01/14 05:36:34;;;;;;;;;;;-4.20;99.90;;;;;;5074620;28;19924;-52
2022/01/14 05:39:01;;;;;;;;;;;-4.20;99.90;;;;;;5073794;28;19925;-52
2022/01/14 05:41:29;;;;;;;;;;;-4.10;99.90;;;;;;5074561;28;19932;-50
2022/01/14 05:43:56;;;;;;;;;;;-4.00;99.90;;;;;;5074221;28;19924;-51
2022/01/14 05:46:23;;;;;;;;;;;-4.00;99.90;;;;;;5074063;28;19929;-51
2022/01/14 05:48:50;;;;;;;;;;;-4.20;99.90;;;;;;5073804;28;19928;-51
2022/01/14 05:51:16;;;;;;;;;;;-4.20;99.90;;;;;;5074293;28;20323;-52
2022/01/14 05:53:43;;;;;;;;;;;-4.40;99.90;;;;;;5074157;28;19928;-52
2022/01/14 05:56:10;;;;;;;;;;;-4.50;99.90;;;;;;5073979;28;19933;-50
2022/01/14 05:58:38;;;;;;;;;;;-4.50;99.90;;;;;;5073817;28;19928;-53
2022/01/14 06:01:07;;;;;;;;;;;-4.50;99.90;;;;;;5073098;28;19924;-51
2022/01/14 06:03:34;;;;;;;;;;;-4.50;99.90;;;;;;5074041;28;20363;-51
2022/01/14 06:06:01;;;;;;;;;;;-4.40;99.90;;;;;;5073930;28;19986;-52
2022/01/14 06:08:28;;;;;;;;;;;-4.40;99.90;;;;;;5069616;28;20019;-50
2022/01/14 06:10:54;;;;;;;;;;;-4.40;99.90;;;;;;5074012;28;19975;-50
2022/01/14 06:13:21;;;;;;;;;;;-4.40;99.90;;;;;;5095869;22;19986;-51
2022/01/14 06:15:49;;;;;;;;;;;-4.40;99.90;;;;;;5049136;28;19980;-51
2022/01/14 06:18:16;;;;;;;;;;;-4.40;99.90;;;;;;5043310;28;19929;-50
2022/01/14 06:20:43;;;;;;;;;;;-4.30;99.90;;;;;;5046145;28;20391;-50
2022/01/14 06:23:10;;;;;;;;;;;-4.30;99.90;;;;;;5039426;28;19964;-50
2022/01/14 06:25:37;;;;;;;;;;;-4.40;99.90;;;;;;5054318;28;19932;-51
2022/01/14 06:28:04;;;;;;;;;;;-4.40;99.90;;;;;;5053550;28;19950;-51
2022/01/14 06:30:31;;;;;;;;;;;-4.40;99.90;;;;;;5054123;28;20032;-50
2022/01/14 06:33:02;;;;;;;;;;;-4.40;99.90;;;;;;5054245;28;19925;-50
2022/01/14 06:35:29;;;;;;;;;;;-4.40;99.90;;;;;;5053465;28;19925;-50
2022/01/14 06:37:57;;;;;;;;;;;-4.50;99.90;;;;;;5045952;28;19929;-52
2022/01/14 06:40:24;;;;;;;;;;;-4.50;99.90;;;;;;5032527;28;20028;-50
2022/01/14 06:42:51;;;;;;;;;;;-4.50;99.90;;;;;;5034345;28;19925;-49
2022/01/14 06:45:18;;;;;;;;;;;-4.50;99.90;;;;;;5034010;28;19932;-50
2022/01/14 06:47:45;;;;;;;;;;;-4.40;99.90;;;;;;5034886;28;19975;-51
2022/01/14 06:50:14;;;;;;;;;;;-4.40;99.90;;;;;;5033696;28;20395;-51
2022/01/14 06:52:40;;;;;;;;;;;-4.30;99.90;;;;;;5033923;28;19931;-50
2022/01/14 06:55:07;;;;;;;;;;;-4.40;99.90;;;;;;5033706;28;20457;-51
2022/01/14 06:57:35;;;;;;;;;;;-4.40;99.90;;;;;;5037380;28;20295;-51
2022/01/14 07:00:02;;;;;;;;;;;-4.30;99.90;;;;;;5053418;28;20256;-50
2022/01/14 07:02:29;;;;;;;;;;;-4.30;99.90;;;;;;5057429;28;20345;-51
2022/01/14 07:04:55;;;;;;;;;;;-4.30;99.90;;;;;;5070821;28;19924;-50
2022/01/14 07:07:23;;;;;;;;;;;-4.30;99.90;;;;;;5052724;28;20387;-51
2022/01/14 07:09:59;;;;;;;;;;;-4.30;99.90;;;;;;5049903;28;20395;-51
2022/01/14 07:12:26;;;;;;;;;;;-4.30;99.90;;;;;;5044352;28;20324;-51
2022/01/14 07:14:54;;;;;;;;;;;-4.20;99.90;;;;;;5050933;28;19928;-50
2022/01/14 07:17:20;;;;;;;;;;;-4.20;99.90;;;;;;5041635;28;19929;-50
2022/01/14 07:19:50;;;;;;;;;;;-4.20;99.90;;;;;;5053277;28;19925;-50
2022/01/14 07:22:17;;;;;;;;;;;-4.30;99.90;;;;;;5052959;28;20013;-51
2022/01/14 07:24:45;;;;;;;;;;;-4.30;99.90;;;;;;5052983;28;20405;-52
2022/01/14 07:27:11;;;;;;;;;;;-4.20;99.90;;;;;;5052329;28;19986;-51
2022/01/14 07:29:38;;;;;;;;;;;-4.10;99.90;;;;;;5033015;28;19925;-51
2022/01/14 07:32:05;;;;;;;;;;;-4.10;99.90;;;;;;5032979;28;20395;-51
2022/01/14 07:34:52;;;;;;;;;;;-4.00;99.90;;;;;;5047582;28;20055;-52
2022/01/14 07:37:20;;;;;;;;;;;-4.20;99.90;;;;;;5051927;28;19925;-51
2022/01/14 07:39:48;;;;;;;;;;;-4.20;99.90;;;;;;5034033;28;19975;-52
2022/01/14 07:42:15;;;;;;;;;;;-4.10;99.90;;;;;;5052538;28;19925;-51
2022/01/14 07:44:42;;;;;;;;;;;-4.20;99.90;;;;;;5047553;28;19928;-51
2022/01/14 07:47:09;;;;;;;;;;;-4.10;99.90;;;;;;5052789;28;19928;-51
2022/01/14 07:49:36;;;;;;;;;;;-4.10;99.90;;;;;;5037844;28;19924;-51
2022/01/14 07:52:03;;;;;;;;;;;-4.20;99.90;;;;;;5052723;28;20444;-51
2022/01/14 07:54:29;;;;;;;;;;;-3.90;99.90;;;;;;5052996;28;19924;-51
2022/01/14 07:57:00;;;;;;;;;;;-3.80;99.90;;;;;;5053010;28;19994;-51
2022/01/14 07:59:28;;;;;;;;;;;-3.70;99.90;;;;;;5035071;28;19925;-51
2022/01/14 08:01:56;;;;;;;;;;;-3.60;99.90;;;;;;5038222;28;19929;-52
2022/01/14 08:04:22;;;;;;;;;;;-3.50;99.90;;;;;;5053079;28;20353;-51
2022/01/14 08:06:51;;;;;;;;;;;-3.40;99.90;;;;;;5052780;28;19925;-51
2022/01/14 08:09:19;;;;;;;;;;;-3.10;99.90;;;;;;5048808;28;20016;-51
2022/01/14 08:11:46;;;;;;;;;;;-3.00;99.90;;;;;;5052483;28;20011;-51
2022/01/14 08:14:14;;;;;;;;;;;-3.00;99.90;;;;;;5052296;28;19924;-51
2022/01/14 08:16:41;;;;;;;;;;;-3.00;99.90;;;;;;5052584;28;20371;-51
2022/01/14 08:19:08;;;;;;;;;;;-2.80;99.90;;;;;;5051877;28;19925;-51
2022/01/14 08:21:35;;;;;;;;;;;-2.70;99.90;;;;;;5051520;28;19933;-51
2022/01/14 08:24:01;;;;;;;;;;;-2.60;99.90;;;;;;5051426;28;19974;-51
2022/01/14 08:26:28;;;;;;;;;;;-2.40;99.90;;;;;;5053087;28;19975;-52
2022/01/14 08:28:55;;;;;;;;;;;-2.30;99.90;;;;;;5054324;28;19974;-52
2022/01/14 08:31:23;;;;;;;;;;;-2.00;99.90;;;;;;5053880;28;19994;-50
2022/01/14 08:33:50;;;;;;;;;;;-1.60;99.90;;;;;;5052439;28;20593;-52
2022/01/14 08:36:17;;;;;;;;;;;-1.30;99.90;;;;;;5056557;28;19979;-51
2022/01/14 08:38:43;;;;;;;;;;;-0.80;99.90;;;;;;5055309;28;20390;-51
2022/01/14 08:41:10;;;;;;;;;;;-0.10;99.90;;;;;;5055323;28;19924;-52
2022/01/14 08:43:37;;;;;;;;;;;0.60;99.90;;;;;;5056083;28;20007;-51
2022/01/14 08:46:04;;;;;;;;;;;1.50;99.90;;;;;;5052968;28;20452;-51
2022/01/14 08:48:32;;;;;;;;;;;2.40;99.90;;;;;;5055781;28;19925;-51
2022/01/14 08:50:59;;;;;;;;;;;3.70;99.90;;;;;;5056184;28;19925;-51
2022/01/14 08:53:27;;;;;;;;;;;4.90;99.90;;;;;;5050243;28;20437;-52
2022/01/14 08:55:53;;;;;;;;;;;5.70;99.90;;;;;;5046119;28;19947;-52
2022/01/14 08:58:20;;;;;;;;;;;6.60;99.90;;;;;;5046760;28;20390;-52
2022/01/14 09:00:48;;;;;;;;;;;6.60;99.90;;;;;;5050369;28;19925;-52
2022/01/14 09:03:15;;;;;;;;;;;6.60;99.90;;;;;;5054258;28;20294;-52
2022/01/14 09:05:43;;;;;;;;;;;6.20;99.90;;;;;;5054647;28;19967;-52
2022/01/14 09:08:09;;;;;;;;;;;5.90;99.90;;;;;;5054528;28;20452;-52
2022/01/14 09:10:36;;;;;;;;;;;5.60;99.90;;;;;;5055616;28;19932;-52
2022/01/14 09:13:04;;;;;;;;;;;5.10;99.90;;;;;;5055855;28;19925;-52
2022/01/14 09:15:31;;;;;;;;;;;5.40;99.90;;;;;;5055181;28;19971;-52
2022/01/14 09:17:58;;;;;;;;;;;5.60;99.90;;;;;;5055111;28;19925;-52
2022/01/14 09:20:25;;;;;;;;;;;5.80;99.90;;;;;;5054537;28;19924;-52
2022/01/14 09:22:57;;;;;;;;;;;6.50;99.90;;;;;;5054643;28;19925;-52
2022/01/14 09:25:23;;;;;;;;;;;7.50;99.90;;;;;;5034871;28;19929;-52
2022/01/14 09:27:52;;;;;;;;;;;8.70;99.90;;;;;;5034913;28;19971;-52
2022/01/14 09:30:19;;;;;;;;;;;8.90;99.90;;;;;;5034976;28;19925;-52
2022/01/14 09:32:46;;;;;;;;;;;8.60;99.90;;;;;;5034733;28;19925;-52
2022/01/14 09:35:13;;;;;;;;;;;8.00;99.90;;;;;;5034681;28;19926;-52
2022/01/14 09:37:41;;;;;;;;;;;7.50;99.90;;;;;;5034802;28;20334;-52
2022/01/14 09:40:09;;;;;;;;;;;7.40;99.90;;;;;;5038020;28;19956;-52
2022/01/14 09:42:36;;;;;;;;;;;7.40;99.90;;;;;;5060722;28;20159;-52
2022/01/14 09:45:04;;;;;;;;;;;6.90;99.90;;;;;;5070287;28;19983;-51
2022/01/14 09:47:30;;;;;;;;;;;6.10;99.90;;;;;;5068009;28;19925;-51
2022/01/14 09:49:57;;;;;;;;;;;5.10;99.90;;;;;;5062045;28;20353;-51
2022/01/14 09:52:24;;;;;;;;;;;4.60;99.90;;;;;;5054439;28;19983;-52
2022/01/14 09:54:51;;;;;;;;;;;4.40;99.90;;;;;;5054499;28;19924;-52
2022/01/14 09:57:19;;;;;;;;;;;4.20;99.90;;;;;;5054221;28;20007;-52
2022/01/14 09:59:46;;;;;;;;;;;3.60;99.90;;;;;;5053714;28;19933;-50
2022/01/14 10:02:29;;;;;;;;;;;3.90;99.90;;;;;;5054304;28;19979;-51
2022/01/14 10:04:56;;;;;;;;;;;4.40;99.90;;;;;;5053339;28;20778;-51
2022/01/14 10:07:23;;;;;;;;;;;4.50;99.90;;;;;;5049797;28;19974;-52
2022/01/14 10:09:55;;;;;;;;;;;4.10;99.90;;;;;;5053967;28;19931;-51
2022/01/14 10:12:24;;;;;;;;;;;4.00;99.90;;;;;;5053365;28;19995;-51
2022/01/14 10:14:54;;;;;;;;;;;3.90;99.90;;;;;;5052829;28;19979;-52
2022/01/14 10:17:21;;;;;;;;;;;4.10;99.90;;;;;;5041651;28;19924;-51
2022/01/14 10:19:48;;;;;;;;;;;4.00;99.90;;;;;;5050715;28;19978;-51
2022/01/14 10:22:20;;;;;;;;;;;4.40;99.90;;;;;;5053166;28;19940;-50
2022/01/14 10:24:53;;;;;;;;;;;5.20;99.90;;;;;;5053753;28;19929;-50
2022/01/14 10:27:31;;;;;;;;;;;6.30;99.90;;;;;;5053797;28;19928;-51
2022/01/14 10:30:06;;;;;;;;;;;7.00;99.90;;;;;;5053062;28;19928;-51
2022/01/14 10:32:36;;;;;;;;;;;8.60;99.90;;;;;;5050675;28;19925;-51
2022/01/14 10:35:04;;;;;;;;;;;9.60;99.90;;;;;;5042469;28;19928;-52
2022/01/14 10:37:33;;;;;;;;;;;10.80;99.90;;;;;;5053743;28;19925;-51
2022/01/14 10:40:00;;;;;;;;;;;11.60;99.90;;;;;;5053569;28;19931;-52
2022/01/14 10:42:28;;;;;;;;;;;11.70;99.90;;;;;;5053907;28;19983;-51
2022/01/14 10:44:57;;;;;;;;;;;10.80;99.90;;;;;;5053251;28;19936;-51
2022/01/14 10:47:25;;;;;;;;;;;10.90;99.90;;;;;;5052570;28;20297;-53
2022/01/14 10:49:54;;;;;;;;;;;10.30;99.90;;;;;;5050162;28;19924;-53
2022/01/14 10:52:22;;;;;;;;;;;8.80;99.90;;;;;;5053464;28;19925;-52
2022/01/14 10:54:49;;;;;;;;;;;7.60;99.90;;;;;;5053386;28;20406;-51
2022/01/14 10:57:17;;;;;;;;;;;6.80;99.90;;;;;;5053643;28;19986;-51
2022/01/14 10:59:44;;;;;;;;;;;6.00;99.90;;;;;;5052541;28;19978;-51
2022/01/14 11:02:30;;;;;;;;;;;5.00;99.90;;;;;;5050940;28;20581;-52
2022/01/14 11:05:08;;;;;;;;;;;4.80;99.90;;;;;;5046181;28;19955;-52
2022/01/14 11:07:35;;;;;;;;;;;4.50;99.90;;;;;;5051636;28;20341;-52
2022/01/14 11:10:02;;;;;;;;;;;4.30;99.90;;;;;;5056186;28;19964;-52
2022/01/14 11:15:33;;;;;;;;;;;4.00;99.90;;;;;;5051597;28;19962;-52
2022/01/14 11:18:02;;;;;;;;;;;4.20;99.90;;;;;;5052520;28;19932;-53
2022/01/14 11:20:34;;;;;;;;;;;4.10;99.90;;;;;;5051033;28;19925;-53
2022/01/14 11:23:16;;;;;;;;;;;4.20;99.90;;;;;;5052147;28;19936;-53
2022/01/14 11:25:49;;;;;;;;;;;4.20;99.90;;;;;;5050215;28;19921;-52
2022/01/14 11:28:18;;;;;;;;;;;4.30;99.90;;;;;;5051799;28;19929;-52
2022/01/14 11:30:45;;;;;;;;;;;4.20;99.90;;;;;;5052219;28;21601;-53
2022/01/14 11:33:13;;;;;;;;;;;4.20;99.90;;;;;;5052131;28;19986;-52
2022/01/14 11:35:52;;;;;;;;;;;3.90;99.90;;;;;;5050545;28;20651;-52
2022/01/14 11:38:36;;;;;;;;;;;4.00;99.90;;;;;;5052111;28;19925;-52
2022/01/14 11:41:04;;;;;;;;;;;3.70;99.90;;;;;;5045853;28;19931;-51
2022/01/14 11:43:41;;;;;;;;;;;3.50;99.90;;;;;;5047044;28;19971;-53
2022/01/14 11:46:09;;;;;;;;;;;3.80;99.90;;;;;;5044901;28;19929;-53
2022/01/14 11:48:40;;;;;;;;;;;3.90;99.90;;;;;;5044000;28;20391;-53
2022/01/14 11:51:09;;;;;;;;;;;3.80;99.90;;;;;;5043433;28;19929;-52
2022/01/14 11:53:40;;;;;;;;;;;4.00;99.90;;;;;;5046336;28;19936;-52
2022/01/14 11:56:08;;;;;;;;;;;3.90;99.90;;;;;;5044561;28;19928;-53
2022/01/14 11:58:35;;;;;;;;;;;3.90;99.90;;;;;;5042202;28;20669;-53
2022/01/14 12:01:01;;;;;;;;;;;3.70;99.90;;;;;;5043164;28;20016;-53
2022/01/14 12:03:32;;;;;;;;;;;3.90;99.90;;;;;;5046309;28;19928;-53
2022/01/14 12:06:00;;;;;;;;;;;3.70;99.90;;;;;;5043702;28;19932;-53
2022/01/14 12:08:30;;;;;;;;;;;3.80;99.90;;;;;;5043864;28;20433;-52
2022/01/14 12:11:00;;;;;;;;;;;3.80;99.90;;;;;;5044084;28;19925;-52
2022/01/14 12:13:37;;;;;;;;;;;3.90;99.90;;;;;;5046612;28;20649;-52
2022/01/14 12:16:05;;;;;;;;;;;4.10;99.90;;;;;;5042346;28;19925;-53
2022/01/14 12:18:50;;;;;;;;;;;4.00;99.90;;;;;;5043441;28;20294;-53
2022/01/14 12:21:17;;;;;;;;;;;3.80;99.90;;;;;;5043233;28;19991;-53
2022/01/14 12:23:46;;;;;;;;;;;3.60;99.90;;;;;;5049279;28;19994;-53
2022/01/14 12:26:13;;;;;;;;;;;3.40;99.90;;;;;;5044183;28;19929;-53
2022/01/14 12:28:40;;;;;;;;;;;3.50;99.90;;;;;;5043084;28;19925;-52
2022/01/14 12:31:08;;;;;;;;;;;3.60;99.90;;;;;;5043825;28;19933;-53
2022/01/14 12:33:41;;;;;;;;;;;3.60;99.90;;;;;;5045819;28;19931;-53
2022/01/14 12:36:12;;;;;;;;;;;3.70;99.90;;;;;;5043857;28;19982;-52
2022/01/14 12:38:39;;;;;;;;;;;3.70;99.90;;;;;;5043993;28;19929;-52
2022/01/14 12:41:13;;;;;;;;;;;3.60;99.90;;;;;;5056653;28;19989;-52
2022/01/14 12:43:47;;;;;;;;;;;3.60;99.90;;;;;;5043984;28;19928;-52
2022/01/14 12:46:34;;;;;;;;;;;3.60;99.90;;;;;;5043555;28;20559;-52
2022/01/14 12:49:02;;;;;;;;;;;3.50;99.90;;;;;;5043227;28;20023;-52
2022/01/14 12:51:29;;;;;;;;;;;3.50;99.90;;;;;;5042815;28;20341;-53
2022/01/14 12:53:57;;;;;;;;;;;3.50;99.90;;;;;;5044029;28;19932;-51
2022/01/14 12:56:27;;;;;;;;;;;3.50;99.90;;;;;;5048716;28;20384;-54
2022/01/14 12:58:59;;;;;;;;;;;3.60;99.90;;;;;;5038453;28;19956;-53
2022/01/14 13:01:33;;;;;;;;;;;3.60;99.90;;;;;;5044047;28;19928;-52
2022/01/14 13:04:02;;;;;;;;;;;3.70;99.90;;;;;;5042458;28;20046;-52
2022/01/14 13:06:28;;;;;;;;;;;3.70;99.90;;;;;;5043242;28;20209;-54
2022/01/14 13:08:56;;;;;;;;;;;3.70;99.90;;;;;;5043188;28;19978;-51
2022/01/14 13:11:23;;;;;;;;;;;3.70;99.90;;;;;;5043482;28;19931;-52
2022/01/14 13:14:02;;;;;;;;;;;3.50;99.90;;;;;;5043828;28;19932;-52
2022/01/14 13:16:42;;;;;;;;;;;3.60;99.90;;;;;;5045009;28;19932;-53
2022/01/14 13:19:19;;;;;;;;;;;3.70;99.90;;;;;;5043064;28;19970;-53
2022/01/14 13:21:46;;;;;;;;;;;3.70;99.90;;;;;;5047558;28;19984;-53
2022/01/14 13:24:18;;;;;;;;;;;3.50;99.90;;;;;;5045207;28;19971;-53
2022/01/14 13:26:45;;;;;;;;;;;3.40;99.90;;;;;;5049085;28;20303;-53
2022/01/14 13:29:13;;;;;;;;;;;3.40;99.90;;;;;;5048923;28;19982;-53
2022/01/14 13:31:45;;;;;;;;;;;3.40;99.90;;;;;;5049631;28;19925;-53
2022/01/14 13:34:12;;;;;;;;;;;3.40;99.90;;;;;;5054066;28;19925;-53
2022/01/14 13:36:39;;;;;;;;;;;3.50;99.90;;;;;;5055137;28;20534;-53
2022/01/14 13:39:09;;;;;;;;;;;3.40;99.90;;;;;;5054354;28;19978;-53
2022/01/14 13:41:36;;;;;;;;;;;3.50;99.90;;;;;;5054876;28;20388;-53
2022/01/14 13:44:15;;;;;;;;;;;3.50;99.90;;;;;;5054957;28;19932;-53
2022/01/14 13:46:45;;;;;;;;;;;3.20;99.90;;;;;;5054941;28;19924;-53
2022/01/14 13:49:18;;;;;;;;;;;3.10;99.90;;;;;;5054587;28;19925;-53
2022/01/14 13:51:46;;;;;;;;;;;3.20;99.90;;;;;;5054877;28;20367;-53
2022/01/14 13:54:16;;;;;;;;;;;3.20;99.90;;;;;;5054805;28;19967;-53
2022/01/14 13:56:43;;;;;;;;;;;3.20;99.90;;;;;;5054918;28;19924;-54
2022/01/14 13:59:10;;;;;;;;;;;3.30;99.90;;;;;;5054161;28;19970;-54
2022/01/14 14:01:49;;;;;;;;;;;3.50;99.90;;;;;;5054468;28;20436;-52
2022/01/14 14:04:26;;;;;;;;;;;3.50;99.90;;;;;;5054688;28;19932;-53
2022/01/14 14:07:04;;;;;;;;;;;3.50;99.90;;;;;;5054315;28;19924;-53
2022/01/14 14:09:36;;;;;;;;;;;3.50;99.90;;;;;;5054024;28;19932;-52
2022/01/14 14:12:25;;;;;;;;;;;3.50;99.90;;;;;;5054223;28;19928;-53
2022/01/14 14:17:38;;;;;;;;;;;3.30;99.90;;;;;;5053643;28;20066;-53
2022/01/14 14:20:06;;;;;;;;;;;3.40;99.90;;;;;;5053366;28;19925;-54
2022/01/14 14:22:34;;;;;;;;;;;3.20;99.90;;;;;;5054174;28;19957;-54
2022/01/14 14:25:04;;;;;;;;;;;3.20;99.90;;;;;;5054017;28;20386;-53
2022/01/14 14:27:32;;;;;;;;;;;3.20;99.90;;;;;;5053658;28;19931;-53
2022/01/14 14:30:00;;;;;;;;;;;3.30;99.90;;;;;;5052068;28;19959;-53
2022/01/14 14:32:29;;;;;;;;;;;3.30;99.90;;;;;;5054062;28;19925;-53
2022/01/14 14:35:00;;;;;;;;;;;3.20;99.90;;;;;;5053393;28;19925;-52
2022/01/14 14:37:27;;;;;;;;;;;3.20;99.90;;;;;;5053404;28;19929;-53
2022/01/14 14:39:54;;;;;;;;;;;3.10;99.90;;;;;;5053603;28;19979;-53
2022/01/14 14:42:21;;;;;;;;;;;3.10;99.90;;;;;;5054081;28;20421;-52
2022/01/14 14:44:47;;;;;;;;;;;3.00;99.90;;;;;;5053946;28;19925;-53
2022/01/14 14:47:14;;;;;;;;;;;2.80;99.90;;;;;;5053417;28;19925;-52
2022/01/14 14:49:41;;;;;;;;;;;2.80;99.90;;;;;;5053025;28;20345;-53
2022/01/14 14:52:10;;;;;;;;;;;2.90;99.90;;;;;;5054025;28;19925;-53
2022/01/14 14:54:37;;;;;;;;;;;2.80;99.90;;;;;;5053799;28;19986;-53
2022/01/14 14:57:04;;;;;;;;;;;2.90;99.90;;;;;;5053897;28;20307;-52